createdAt,value
2023-04-15T00:01:19.708Z,8.11
2023-04-15T00:03:48.688Z,8.10
2023-04-15T00:06:17.013Z,8.09
2023-04-15T00:08:45.113Z,8.08
2023-04-15T00:11:13.545Z,8.09
2023-04-15T00:13:43.322Z,8.13
2023-04-15T00:16:11.706Z,8.11
2023-04-15T00:18:39.941Z,8.09
2023-04-15T00:21:08.034Z,8.09
2023-04-15T00:23:36.537Z,8.05
2023-04-15T00:26:04.721Z,8.10
2023-04-15T00:28:33.632Z,8.09
2023-04-15T00:31:03.158Z,8.13
2023-04-15T00:33:31.305Z,8.15
2023-04-15T00:35:59.420Z,8.20
2023-04-15T00:38:28.139Z,8.20
2023-04-15T00:40:56.798Z,8.19
2023-04-15T00:43:26.425Z,8.18
2023-04-15T00:45:55.943Z,8.19
2023-04-15T00:48:26.208Z,8.18
2023-04-15T00:50:54.289Z,8.21
2023-04-15T00:53:22.378Z,8.23
2023-04-15T00:55:51.219Z,8.20
2023-04-15T00:58:19.438Z,8.18
2023-04-15T01:00:47.813Z,8.16
2023-04-15T01:03:16.556Z,8.15
2023-04-15T01:05:46.596Z,8.15
2023-04-15T01:08:14.903Z,8.14
2023-04-15T01:10:43.011Z,8.13
2023-04-15T01:13:11.093Z,8.15
2023-04-15T01:15:39.741Z,8.17
2023-04-15T01:18:08.474Z,8.20
2023-04-15T01:20:36.987Z,8.23
2023-04-15T01:23:07.420Z,8.27
2023-04-15T01:25:37.115Z,8.30
2023-04-15T01:28:05.988Z,8.33
2023-04-15T01:30:35.919Z,8.34
2023-04-15T01:33:04.253Z,8.36
2023-04-15T01:35:32.378Z,8.36
2023-04-15T01:38:04.935Z,8.36
2023-04-15T01:40:33.163Z,8.40
2023-04-15T01:43:03.859Z,8.43
2023-04-15T01:45:31.910Z,8.43
2023-04-15T01:48:00.072Z,8.44
2023-04-15T01:50:28.307Z,8.43
2023-04-15T01:52:56.377Z,8.44
2023-04-15T01:55:24.452Z,8.43
2023-04-15T01:57:52.590Z,8.46
2023-04-15T02:00:22.371Z,8.49
2023-04-15T02:02:50.618Z,8.53
2023-04-15T02:05:18.893Z,8.55
2023-04-15T02:07:47.279Z,8.60
2023-04-15T02:10:16.735Z,8.61
2023-04-15T02:12:45.065Z,8.60
2023-04-15T02:15:13.211Z,8.61
2023-04-15T02:17:45.884Z,8.58
2023-04-15T02:20:14.519Z,8.56
2023-04-15T02:22:42.706Z,8.57
2023-04-15T02:25:11.632Z,8.62
2023-04-15T02:27:39.722Z,8.66
2023-04-15T02:30:09.359Z,8.69
2023-04-15T02:32:38.085Z,8.70
2023-04-15T02:35:09.412Z,8.69
2023-04-15T02:37:41.685Z,8.69
2023-04-15T02:40:12.093Z,8.66
2023-04-15T02:42:40.326Z,8.66
2023-04-15T02:45:09.506Z,8.64
2023-04-15T02:47:37.625Z,8.61
2023-04-15T02:50:12.474Z,8.59
2023-04-15T02:52:41.250Z,8.55
2023-04-15T02:55:09.983Z,8.54
2023-04-15T02:57:39.214Z,8.58
2023-04-15T03:00:09.743Z,8.58
2023-04-15T03:02:38.627Z,8.59
2023-04-15T03:05:12.669Z,8.61
2023-04-15T03:07:41.363Z,8.62
2023-04-15T03:10:11.101Z,8.65
2023-04-15T03:12:39.494Z,8.65
2023-04-15T03:15:08.855Z,8.63
2023-04-15T03:17:37.054Z,8.61
2023-04-15T03:20:06.264Z,8.60
2023-04-15T03:22:35.763Z,8.60
2023-04-15T03:25:03.921Z,8.59
2023-04-15T03:27:32.048Z,8.60
2023-04-15T03:30:00.135Z,8.63
2023-04-15T03:32:28.305Z,8.64
2023-04-15T03:34:56.371Z,8.65
2023-04-15T03:37:24.484Z,8.65
2023-04-15T03:39:53.947Z,8.66
2023-04-15T03:42:22.088Z,8.66
2023-04-15T03:44:50.190Z,8.65
2023-04-15T03:47:18.224Z,8.67
2023-04-15T03:49:46.333Z,8.61
2023-04-15T03:52:14.454Z,8.61
2023-04-15T03:54:42.544Z,8.64
2023-04-15T03:57:11.950Z,8.67
2023-04-15T03:59:40.046Z,8.69
2023-04-15T04:02:08.203Z,8.69
2023-04-15T04:04:36.355Z,8.69
2023-04-15T04:07:04.568Z,8.69
2023-04-15T04:09:32.650Z,8.70
2023-04-15T04:12:01.266Z,8.70
2023-04-15T04:14:30.826Z,8.73
2023-04-15T04:16:58.951Z,8.72
2023-04-15T04:19:27.059Z,8.71
2023-04-15T04:21:55.604Z,8.73
2023-04-15T04:24:23.726Z,8.75
2023-04-15T04:26:51.770Z,8.76
2023-04-15T04:29:19.877Z,8.78
2023-04-15T04:31:49.574Z,8.79
2023-04-15T04:34:17.696Z,8.81
2023-04-15T04:36:46.039Z,8.82
2023-04-15T04:39:14.127Z,8.82
2023-04-15T04:41:42.213Z,8.84
2023-04-15T04:44:10.307Z,8.83
2023-04-15T04:46:38.378Z,8.86
2023-04-15T04:49:07.839Z,8.88
2023-04-15T04:51:36.079Z,8.90
2023-04-15T04:54:04.296Z,8.90
2023-04-15T04:56:34.301Z,8.92
2023-04-15T04:59:02.757Z,8.89
2023-04-15T05:01:31.438Z,8.88
2023-04-15T05:03:59.698Z,8.85
2023-04-15T05:06:30.556Z,8.88
2023-04-15T05:08:58.663Z,8.88
2023-04-15T05:11:26.974Z,8.89
2023-04-15T05:13:55.042Z,8.93
2023-04-15T05:16:23.295Z,8.96
2023-04-15T05:18:51.887Z,9.00
2023-04-15T05:21:20.041Z,9.02
2023-04-15T05:23:49.517Z,9.04
2023-04-15T05:26:17.688Z,9.08
2023-04-15T05:28:46.201Z,9.13
2023-04-15T05:31:14.399Z,9.18
2023-04-15T05:33:42.517Z,9.19
2023-04-15T05:36:10.963Z,9.23
2023-04-15T05:38:39.056Z,9.25
2023-04-15T05:41:08.499Z,9.23
2023-04-15T05:43:36.636Z,9.19
2023-04-15T05:46:04.766Z,9.18
2023-04-15T05:48:32.897Z,9.13
2023-04-15T05:51:01.226Z,9.12
2023-04-15T05:53:29.302Z,9.11
2023-04-15T05:55:57.437Z,9.11
2023-04-15T05:58:27.103Z,9.10
2023-04-15T06:00:55.247Z,9.08
2023-04-15T06:03:23.789Z,9.09
2023-04-15T06:05:51.985Z,9.10
2023-04-15T06:08:20.609Z,9.11
2023-04-15T06:10:48.862Z,9.10
2023-04-15T06:13:17.197Z,9.11
2023-04-15T06:15:46.695Z,9.12
2023-04-15T06:18:14.746Z,9.14
2023-04-15T06:20:42.893Z,9.19
2023-04-15T06:23:11.347Z,9.28
2023-04-15T06:25:39.467Z,9.30
2023-04-15T06:28:07.826Z,9.33
2023-04-15T06:30:36.885Z,9.35
2023-04-15T06:33:06.552Z,9.38
2023-04-15T06:35:34.714Z,9.42
2023-04-15T06:38:02.802Z,9.41
2023-04-15T06:40:31.254Z,9.40
2023-04-15T06:42:59.666Z,9.40
2023-04-15T06:45:27.775Z,9.40
2023-04-15T06:47:56.002Z,9.40
2023-04-15T06:50:25.526Z,9.44
2023-04-15T06:52:53.705Z,9.38
2023-04-15T06:55:22.348Z,9.40
2023-04-15T06:57:50.415Z,9.43
2023-04-15T07:00:19.196Z,9.42
2023-04-15T07:02:47.916Z,9.43
2023-04-15T07:05:16.069Z,9.41
2023-04-15T07:07:46.090Z,9.37
2023-04-15T07:10:15.016Z,9.37
2023-04-15T07:12:43.123Z,9.42
2023-04-15T07:15:12.124Z,9.43
2023-04-15T07:17:40.260Z,9.47
2023-04-15T07:20:09.890Z,9.46
2023-04-15T07:22:37.996Z,9.45
2023-04-15T07:25:09.072Z,9.42
2023-04-15T07:27:37.154Z,9.44
2023-04-15T07:30:05.935Z,9.47
2023-04-15T07:32:34.227Z,9.52
2023-04-15T07:35:03.794Z,9.53
2023-04-15T07:37:32.232Z,9.53
2023-04-15T07:40:00.380Z,9.55
2023-04-15T07:42:30.569Z,9.54
2023-04-15T07:44:58.804Z,9.53
2023-04-15T07:47:27.181Z,9.53
2023-04-15T07:49:55.318Z,9.57
2023-04-15T07:52:23.426Z,9.55
2023-04-15T07:54:51.651Z,9.54
2023-04-15T07:57:19.943Z,9.48
2023-04-15T07:59:49.432Z,9.53
2023-04-15T08:02:18.412Z,9.57
2023-04-15T08:04:46.901Z,9.61
2023-04-15T08:07:15.044Z,9.67
2023-04-15T08:09:43.159Z,9.70
2023-04-15T08:12:13.365Z,9.77
2023-04-15T08:14:41.858Z,9.92
2023-04-15T08:17:11.278Z,9.95
2023-04-15T08:19:39.402Z,9.95
2023-04-15T08:22:15.627Z,9.99
2023-04-15T08:24:47.305Z,10.05
2023-04-15T08:27:15.393Z,10.09
2023-04-15T08:29:43.506Z,10.11
2023-04-15T08:32:13.023Z,10.08
2023-04-15T08:34:41.173Z,10.13
2023-04-15T08:37:10.804Z,10.19
2023-04-15T08:39:39.512Z,10.23
2023-04-15T08:42:12.654Z,10.23
2023-04-15T08:44:41.254Z,10.25
2023-04-15T08:47:10.456Z,10.29
2023-04-15T08:49:42.030Z,10.35
2023-04-15T08:52:10.431Z,10.39
2023-04-15T08:54:38.796Z,10.48
2023-04-15T08:57:07.972Z,10.59
2023-04-15T08:59:36.428Z,10.67
2023-04-15T09:02:04.850Z,10.70
2023-04-15T09:04:33.150Z,10.72
2023-04-15T09:07:02.748Z,10.75
2023-04-15T09:09:31.320Z,10.76
2023-04-15T09:11:59.405Z,10.75
2023-04-15T09:14:32.141Z,10.77
2023-04-15T09:17:01.845Z,10.85
2023-04-15T09:19:30.643Z,10.90
2023-04-15T09:22:00.474Z,10.98
2023-04-15T09:24:38.155Z,11.00
2023-04-15T09:27:06.416Z,11.08
2023-04-15T09:29:34.726Z,11.20
2023-04-15T09:32:13.256Z,11.30
2023-04-15T09:34:41.389Z,11.43
2023-04-15T09:37:10.938Z,11.57
2023-04-15T09:39:51.029Z,11.79
2023-04-15T09:42:24.312Z,12.01
2023-04-15T09:44:53.260Z,12.16
2023-04-15T09:47:31.498Z,12.41
2023-04-15T09:50:01.027Z,12.58
2023-04-15T09:52:29.421Z,12.84
2023-04-15T09:55:00.199Z,13.02
2023-04-15T09:57:35.239Z,13.20
2023-04-15T10:00:03.716Z,13.40
2023-04-15T10:02:32.737Z,13.55
2023-04-15T10:05:01.200Z,13.69
2023-04-15T10:07:29.668Z,13.84
2023-04-15T10:10:00.953Z,13.96
2023-04-15T10:12:29.661Z,14.14
2023-04-15T10:14:59.975Z,14.20
2023-04-15T10:17:31.621Z,14.25
2023-04-15T10:20:01.810Z,14.25
2023-04-15T10:22:31.480Z,14.22
2023-04-15T10:25:01.815Z,14.27
2023-04-15T10:27:29.988Z,14.40
2023-04-15T10:29:58.287Z,14.50
2023-04-15T10:32:27.149Z,14.67
2023-04-15T10:34:55.712Z,14.89
2023-04-15T10:37:34.170Z,15.06
2023-04-15T10:40:18.829Z,15.00
2023-04-15T10:42:47.294Z,14.94
2023-04-15T10:45:18.006Z,15.16
2023-04-15T10:47:46.389Z,15.22
2023-04-15T10:50:14.534Z,15.16
2023-04-15T10:52:42.826Z,15.06
2023-04-15T10:55:16.477Z,14.94
2023-04-15T10:57:46.284Z,14.84
2023-04-15T11:00:15.597Z,14.89
2023-04-15T11:02:46.513Z,14.90
2023-04-15T11:05:15.560Z,14.86
2023-04-15T11:07:50.549Z,14.85
2023-04-15T11:10:56.679Z,15.00
2023-04-15T11:13:29.451Z,15.12
2023-04-15T11:16:01.421Z,15.02
2023-04-15T11:18:34.416Z,15.17
2023-04-15T11:21:05.291Z,15.58
2023-04-15T11:23:35.808Z,15.99
2023-04-15T11:26:09.294Z,16.44
2023-04-15T11:28:38.920Z,16.57
2023-04-15T11:31:11.892Z,16.45
2023-04-15T11:33:47.077Z,16.42
2023-04-15T11:36:15.220Z,16.36
2023-04-15T11:38:48.412Z,16.29
2023-04-15T11:41:21.313Z,16.29
2023-04-15T11:43:49.557Z,16.52
2023-04-15T11:46:18.044Z,16.71
2023-04-15T11:48:47.519Z,16.77
2023-04-15T11:51:15.747Z,16.85
2023-04-15T11:53:46.094Z,16.78
2023-04-15T11:56:21.090Z,16.55
2023-04-15T11:58:50.906Z,16.30
2023-04-15T12:01:19.232Z,16.09
2023-04-15T12:03:48.402Z,16.05
2023-04-15T12:06:19.286Z,16.26
2023-04-15T12:09:08.633Z,16.51
2023-04-15T12:11:48.467Z,16.68
2023-04-15T12:14:23.655Z,16.81
2023-04-15T12:16:54.023Z,16.76
2023-04-15T12:19:26.504Z,16.68
2023-04-15T12:22:00.494Z,16.64
2023-04-15T12:24:29.429Z,16.67
2023-04-15T12:26:59.392Z,16.57
2023-04-15T12:29:29.274Z,16.28
2023-04-15T12:31:58.648Z,15.92
2023-04-15T12:34:32.013Z,15.67
2023-04-15T12:37:01.309Z,15.53
2023-04-15T12:39:31.307Z,15.52
2023-04-15T12:42:01.747Z,15.52
2023-04-15T12:44:30.034Z,15.44
2023-04-15T12:46:58.394Z,15.32
2023-04-15T12:49:27.375Z,15.31
2023-04-15T12:51:57.005Z,15.39
2023-04-15T12:54:25.265Z,15.47
2023-04-15T12:56:54.289Z,15.48
2023-04-15T12:59:24.341Z,15.43
2023-04-15T13:01:53.663Z,15.35
2023-04-15T13:04:22.720Z,15.15
2023-04-15T13:06:51.406Z,15.17
2023-04-15T13:09:19.665Z,15.24
2023-04-15T13:11:47.903Z,15.36
2023-04-15T13:14:16.058Z,15.51
2023-04-15T13:16:45.775Z,15.76
2023-04-15T13:19:14.348Z,16.07
2023-04-15T13:21:42.524Z,16.37
2023-04-15T13:24:10.734Z,16.53
2023-04-15T13:26:38.919Z,16.46
2023-04-15T13:29:07.344Z,16.27
2023-04-15T13:31:35.641Z,16.10
2023-04-15T13:34:05.719Z,16.10
2023-04-15T13:36:34.170Z,16.14
2023-04-15T13:39:02.504Z,15.87
2023-04-15T13:41:30.722Z,15.88
2023-04-15T13:43:58.922Z,16.08
2023-04-15T13:46:27.198Z,16.06
2023-04-15T13:48:55.364Z,15.98
2023-04-15T13:51:25.053Z,15.98
2023-04-15T13:53:53.224Z,15.87
2023-04-15T13:56:21.663Z,15.70
2023-04-15T13:58:49.898Z,15.73
2023-04-15T14:01:18.110Z,15.65
2023-04-15T14:03:46.604Z,15.49
2023-04-15T14:06:14.878Z,15.48
2023-04-15T14:08:44.469Z,15.56
2023-04-15T14:11:12.864Z,15.64
2023-04-15T14:13:41.082Z,15.60
2023-04-15T14:16:09.366Z,15.48
2023-04-15T14:18:38.520Z,15.30
2023-04-15T14:21:07.409Z,15.01
2023-04-15T14:23:35.651Z,14.80
2023-04-15T14:26:05.604Z,14.69
2023-04-15T14:28:33.822Z,14.64
2023-04-15T14:31:02.106Z,14.61
2023-04-15T14:33:30.545Z,14.60
2023-04-15T14:35:58.841Z,14.66
2023-04-15T14:38:27.073Z,14.67
2023-04-15T14:40:55.210Z,14.62
2023-04-15T14:43:24.916Z,14.61
2023-04-15T14:45:53.131Z,14.48
2023-04-15T14:48:21.359Z,14.46
2023-04-15T14:50:49.630Z,14.41
2023-04-15T14:53:17.995Z,14.40
2023-04-15T14:55:46.277Z,14.42
2023-04-15T14:58:14.677Z,14.45
2023-04-15T15:00:44.857Z,14.43
2023-04-15T15:03:13.978Z,14.39
2023-04-15T15:05:43.131Z,14.29
2023-04-15T15:08:11.607Z,14.34
2023-04-15T15:10:48.418Z,14.43
2023-04-15T15:13:18.731Z,14.33
2023-04-15T15:15:49.525Z,14.27
2023-04-15T15:18:19.097Z,14.19
2023-04-15T15:20:47.796Z,14.19
2023-04-15T15:23:16.120Z,14.10
2023-04-15T15:25:44.971Z,14.09
2023-04-15T15:28:13.296Z,14.10
2023-04-15T15:30:41.523Z,14.03
2023-04-15T15:33:11.119Z,13.97
2023-04-15T15:35:40.144Z,13.85
2023-04-15T15:38:08.744Z,13.75
2023-04-15T15:40:36.916Z,13.67
2023-04-15T15:43:05.486Z,13.64
2023-04-15T15:45:34.359Z,13.62
2023-04-15T15:48:02.916Z,13.61
2023-04-15T15:50:32.930Z,13.57
2023-04-15T15:53:01.137Z,13.50
2023-04-15T15:55:29.307Z,13.43
2023-04-15T15:57:57.495Z,13.42
2023-04-15T16:00:25.902Z,13.42
2023-04-15T16:03:06.601Z,13.43
2023-04-15T16:05:36.671Z,13.44
2023-04-15T16:08:05.042Z,13.50
2023-04-15T16:10:33.280Z,13.58
2023-04-15T16:13:02.038Z,13.66
2023-04-15T16:15:30.374Z,13.66
2023-04-15T16:17:58.694Z,13.65
2023-04-15T16:20:28.371Z,13.66
2023-04-15T16:22:59.681Z,13.58
2023-04-15T16:25:27.906Z,13.49
2023-04-15T16:28:05.601Z,13.40
2023-04-15T16:30:40.586Z,13.32
2023-04-15T16:33:09.670Z,13.30
2023-04-15T16:35:37.845Z,13.27
2023-04-15T16:38:07.600Z,13.26
2023-04-15T16:40:35.920Z,13.24
2023-04-15T16:43:04.425Z,13.24
2023-04-15T16:45:32.712Z,13.27
2023-04-15T16:48:00.932Z,13.31
2023-04-15T16:50:29.465Z,13.32
2023-04-15T16:52:57.766Z,13.33
2023-04-15T16:55:27.991Z,13.21
2023-04-15T16:58:02.670Z,13.07
2023-04-15T17:00:32.193Z,12.98
2023-04-15T17:03:01.256Z,12.87
2023-04-15T17:05:30.705Z,12.79
2023-04-15T17:07:59.358Z,12.70
2023-04-15T17:10:29.238Z,12.60
2023-04-15T17:12:58.312Z,12.51
2023-04-15T17:15:27.312Z,12.44
2023-04-15T17:17:55.927Z,12.35
2023-04-15T17:20:24.193Z,12.32
2023-04-15T17:22:52.501Z,12.28
2023-04-15T17:25:20.940Z,12.22
2023-04-15T17:27:50.549Z,12.19
2023-04-15T17:30:18.985Z,12.15
2023-04-15T17:32:47.393Z,12.13
2023-04-15T17:35:15.742Z,12.08
2023-04-15T17:37:43.999Z,12.06
2023-04-15T17:40:13.874Z,12.03
2023-04-15T17:42:42.522Z,12.00
2023-04-15T17:45:12.880Z,11.98
2023-04-15T17:47:41.429Z,11.96
2023-04-15T17:50:10.190Z,11.92
2023-04-15T17:52:38.398Z,11.89
2023-04-15T17:55:07.937Z,11.87
2023-04-15T17:57:36.303Z,11.78
2023-04-15T18:00:04.795Z,11.74
2023-04-15T18:02:36.840Z,11.73
2023-04-15T18:05:06.201Z,11.69
2023-04-15T18:07:34.483Z,11.64
2023-04-15T18:10:02.676Z,11.58
2023-04-15T18:12:30.936Z,11.52
2023-04-15T18:14:59.396Z,11.50
2023-04-15T18:17:28.516Z,11.42
2023-04-15T18:19:58.183Z,11.36
2023-04-15T18:22:26.500Z,11.30
2023-04-15T18:24:54.679Z,11.28
2023-04-15T18:27:22.932Z,11.25
2023-04-15T18:29:51.842Z,11.24
2023-04-15T18:32:20.109Z,11.22
2023-04-15T18:34:48.378Z,11.19
2023-04-15T18:37:18.068Z,11.16
2023-04-15T18:39:46.340Z,11.17
2023-04-15T18:42:17.226Z,11.14
2023-04-15T18:44:45.431Z,11.11
2023-04-15T18:47:13.683Z,11.05
2023-04-15T18:49:42.179Z,11.00
2023-04-15T18:52:10.888Z,10.96
2023-04-15T18:54:40.833Z,10.95
2023-04-15T18:57:09.147Z,10.94
2023-04-15T18:59:37.545Z,10.89
2023-04-15T19:02:07.549Z,10.87
2023-04-15T19:04:35.986Z,10.84
2023-04-15T19:07:04.734Z,10.80
2023-04-15T19:09:34.006Z,10.76
2023-04-15T19:12:03.727Z,10.70
2023-04-15T19:14:31.921Z,10.67
2023-04-15T19:17:00.259Z,10.65
2023-04-15T19:19:29.427Z,10.61
2023-04-15T19:21:57.806Z,10.59
2023-04-15T19:24:25.999Z,10.58
2023-04-15T19:26:54.237Z,10.56
2023-04-15T19:29:24.331Z,10.53
2023-04-15T19:31:53.022Z,10.50
2023-04-15T19:34:22.503Z,10.46
2023-04-15T19:36:50.956Z,10.42
2023-04-15T19:39:19.711Z,10.39
2023-04-15T19:41:48.192Z,10.38
2023-04-15T19:44:16.500Z,10.34
2023-04-15T19:46:49.913Z,10.30
2023-04-15T19:49:19.111Z,10.27
2023-04-15T19:51:49.054Z,10.25
2023-04-15T19:54:17.637Z,10.21
2023-04-15T19:56:45.982Z,10.19
2023-04-15T19:59:14.262Z,10.19
2023-04-15T20:01:42.484Z,10.18
2023-04-15T20:04:12.830Z,10.20
2023-04-15T20:06:41.047Z,10.18
2023-04-15T20:09:11.169Z,10.18
2023-04-15T20:12:46.817Z,10.20
2023-04-15T20:14:28.185Z,10.18
2023-04-15T20:16:56.533Z,10.18
2023-04-15T20:19:29.687Z,10.18
2023-04-15T20:21:58.048Z,10.18
2023-04-15T20:24:26.503Z,10.18
2023-04-15T20:26:54.720Z,10.19
2023-04-15T20:29:23.135Z,10.18
2023-04-15T20:31:51.412Z,10.16
2023-04-15T20:34:19.758Z,10.17
2023-04-15T20:36:49.462Z,10.18
2023-04-15T20:39:17.841Z,10.17
2023-04-15T20:41:46.096Z,10.17
2023-04-15T20:44:14.309Z,10.15
2023-04-15T20:46:42.618Z,10.14
2023-04-15T20:49:10.722Z,10.15
2023-04-15T20:51:38.812Z,10.18
2023-04-15T20:54:08.467Z,10.17
2023-04-15T20:56:36.615Z,10.15
2023-04-15T20:59:05.019Z,10.13
2023-04-15T21:01:33.571Z,10.13
2023-04-15T21:04:01.810Z,10.13
2023-04-15T21:06:29.988Z,10.16
2023-04-15T21:08:58.054Z,10.19
2023-04-15T21:11:46.358Z,10.23
2023-04-15T21:14:15.581Z,10.23
2023-04-15T21:16:44.038Z,10.20
2023-04-15T21:19:12.266Z,10.19
2023-04-15T21:21:40.372Z,10.19
2023-04-15T21:24:08.685Z,10.20
2023-04-15T21:26:38.197Z,10.21
2023-04-15T21:29:08.664Z,10.19
2023-04-15T21:31:38.775Z,10.17
2023-04-15T21:34:06.955Z,10.16
2023-04-15T21:36:35.155Z,10.15
2023-04-15T21:39:03.461Z,10.13
2023-04-15T21:41:32.681Z,10.13
2023-04-15T21:44:02.171Z,10.15
2023-04-15T21:46:35.000Z,10.16
2023-04-15T21:49:04.522Z,10.17
2023-04-15T21:51:32.884Z,10.19
2023-04-15T21:54:01.104Z,10.18
2023-04-15T21:56:29.378Z,10.16
2023-04-15T21:58:58.437Z,10.14
2023-04-15T22:01:28.157Z,10.14
2023-04-15T22:03:56.466Z,10.14
2023-04-15T22:06:24.700Z,10.14
2023-04-15T22:09:11.381Z,10.15
2023-04-15T22:11:41.362Z,10.13
2023-04-15T22:14:09.448Z,10.12
2023-04-15T22:16:38.987Z,10.09
2023-04-15T22:19:07.370Z,10.11
2023-04-15T22:21:35.809Z,10.10
2023-04-15T22:24:31.894Z,10.10
2023-04-15T22:26:52.014Z,10.07
2023-04-15T22:29:20.102Z,10.05
2023-04-15T22:31:49.588Z,10.00
2023-04-15T22:34:21.335Z,9.96
2023-04-15T22:36:49.901Z,9.92
2023-04-15T22:39:18.659Z,9.90
2023-04-15T22:41:47.279Z,9.88
2023-04-15T22:44:15.434Z,9.86
2023-04-15T22:46:43.853Z,9.84
2023-04-15T22:49:13.364Z,9.82
2023-04-15T22:51:41.438Z,9.79
2023-04-15T22:54:09.541Z,9.76
2023-04-15T22:56:37.634Z,9.72
2023-04-15T22:59:05.752Z,9.68
2023-04-15T23:01:34.065Z,9.64
2023-04-15T23:04:09.830Z,9.65
2023-04-15T23:06:52.406Z,9.61
2023-04-15T23:09:20.976Z,9.58
2023-04-15T23:11:49.102Z,9.58
2023-04-15T23:14:17.197Z,9.58
2023-04-15T23:16:45.611Z,9.57
2023-04-15T23:19:13.708Z,9.57
2023-04-15T23:21:41.900Z,9.56
2023-04-15T23:24:12.460Z,9.52
2023-04-15T23:26:40.813Z,9.55
2023-04-15T23:29:09.294Z,9.55
2023-04-15T23:31:37.705Z,9.55
2023-04-15T23:34:06.449Z,9.57
2023-04-15T23:36:34.622Z,9.58
2023-04-15T23:39:02.708Z,9.55
2023-04-15T23:41:32.195Z,9.56
2023-04-15T23:44:00.358Z,9.59
2023-04-15T23:46:28.540Z,9.60
2023-04-15T23:48:56.701Z,9.59
2023-04-15T23:51:24.787Z,9.61
2023-04-15T23:53:53.134Z,9.63
2023-04-15T23:56:21.489Z,9.63
2023-04-15T23:58:50.926Z,9.64
